createdAt,value
2018-07-20T00:01:52.060Z,1.23
2018-07-20T00:04:20.662Z,1.20
2018-07-20T00:06:49.632Z,1.13
2018-07-20T00:09:18.314Z,1.20
2018-07-20T00:11:47.062Z,0.90
2018-07-20T00:14:15.617Z,1.30
2018-07-20T00:16:44.182Z,1.13
2018-07-20T00:19:12.817Z,1.40
2018-07-20T00:21:41.394Z,1.23
2018-07-20T00:24:09.980Z,1.50
2018-07-20T00:26:38.512Z,1.30
2018-07-20T00:29:07.166Z,1.03
2018-07-20T00:31:35.759Z,1.07
2018-07-20T00:34:04.351Z,1.97
2018-07-20T00:36:32.949Z,1.40
2018-07-20T00:39:01.680Z,1.33
2018-07-20T00:41:30.167Z,1.20
2018-07-20T00:43:58.763Z,1.10
2018-07-20T00:46:27.262Z,1.50
2018-07-20T00:48:55.913Z,1.20
2018-07-20T00:51:24.499Z,1.47
2018-07-20T00:53:53.074Z,1.60
2018-07-20T00:56:21.593Z,1.20
2018-07-20T00:58:50.175Z,1.23
2018-07-20T01:01:18.824Z,1.57
2018-07-20T01:03:48.295Z,1.40
2018-07-20T01:06:16.911Z,1.30
2018-07-20T01:08:45.494Z,1.23
2018-07-20T01:11:14.043Z,1.23
2018-07-20T01:13:42.615Z,1.10
2018-07-20T01:16:11.182Z,1.27
2018-07-20T01:18:39.785Z,1.50
2018-07-20T01:21:09.254Z,1.20
2018-07-20T01:23:37.912Z,1.10
2018-07-20T01:26:06.563Z,1.40
2018-07-20T01:28:35.099Z,1.23
2018-07-20T01:31:03.697Z,1.50
2018-07-20T01:33:32.333Z,1.50
2018-07-20T01:36:01.542Z,1.07
2018-07-20T01:38:30.043Z,1.03
2018-07-20T01:40:58.804Z,1.67
2018-07-20T01:43:27.395Z,1.20
2018-07-20T01:45:56.099Z,1.43
2018-07-20T01:48:25.379Z,0.90
2018-07-20T01:50:53.965Z,1.60
2018-07-20T01:53:22.548Z,1.20
2018-07-20T01:55:51.231Z,1.73
2018-07-20T01:58:19.841Z,1.33
2018-07-20T02:00:48.443Z,1.37
2018-07-20T02:03:17.050Z,1.40
2018-07-20T02:05:46.539Z,1.40
2018-07-20T02:08:15.831Z,1.10
2018-07-20T02:10:44.406Z,1.27
2018-07-20T02:13:12.994Z,1.10
2018-07-20T02:15:41.637Z,1.20
2018-07-20T02:18:10.195Z,1.40
2018-07-20T02:20:38.697Z,1.50
2018-07-20T02:23:07.195Z,1.13
2018-07-20T02:25:35.864Z,1.27
2018-07-20T02:28:04.446Z,1.67
2018-07-20T02:30:32.983Z,1.40
2018-07-20T02:33:01.543Z,1.17
2018-07-20T02:35:30.131Z,1.40
2018-07-20T02:37:58.676Z,1.30
2018-07-20T02:40:27.463Z,1.40
2018-07-20T02:42:55.998Z,1.10
2018-07-20T02:45:24.558Z,1.10
2018-07-20T02:47:53.287Z,1.20
2018-07-20T02:50:21.843Z,1.30
2018-07-20T02:52:50.483Z,1.00
2018-07-20T02:55:18.987Z,1.20
2018-07-20T02:57:47.551Z,1.00
2018-07-20T03:00:16.129Z,1.37
2018-07-20T03:02:44.622Z,1.73
2018-07-20T03:05:13.443Z,1.10
2018-07-20T03:07:42.286Z,1.20
2018-07-20T03:10:10.870Z,1.00
2018-07-20T03:12:39.457Z,1.30
2018-07-20T03:15:08.141Z,1.43
2018-07-20T03:17:36.721Z,1.33
2018-07-20T03:20:05.301Z,1.20
2018-07-20T03:22:33.804Z,1.20
2018-07-20T03:25:02.425Z,1.33
2018-07-20T03:27:30.967Z,1.20
2018-07-20T03:29:59.543Z,1.70
2018-07-20T03:32:28.034Z,1.20
2018-07-20T03:34:56.508Z,1.67
2018-07-20T03:37:25.091Z,1.40
2018-07-20T03:39:53.749Z,1.43
2018-07-20T03:42:22.446Z,1.20
2018-07-20T03:44:51.080Z,1.23
2018-07-20T03:47:19.714Z,1.10
2018-07-20T03:49:48.298Z,1.27
2018-07-20T03:52:16.932Z,1.50
2018-07-20T03:54:45.666Z,1.13
2018-07-20T03:57:14.557Z,1.67
2018-07-20T03:59:43.156Z,1.17
2018-07-20T04:02:11.920Z,1.17
2018-07-20T04:04:40.451Z,1.27
2018-07-20T04:07:09.142Z,1.07
2018-07-20T04:09:37.777Z,1.20
2018-07-20T04:12:06.360Z,1.10
2018-07-20T04:14:35.148Z,1.10
2018-07-20T04:17:03.695Z,1.50
2018-07-20T04:19:32.254Z,1.40
2018-07-20T04:22:00.896Z,1.13
2018-07-20T04:24:29.479Z,0.83
2018-07-20T04:26:57.986Z,1.30
2018-07-20T04:29:26.645Z,1.27
2018-07-20T04:31:55.228Z,1.17
2018-07-20T04:34:23.714Z,1.20
2018-07-20T04:36:52.396Z,1.07
2018-07-20T04:39:20.977Z,0.87
2018-07-20T04:41:49.663Z,1.10
2018-07-20T04:44:18.347Z,1.37
2018-07-20T04:46:46.984Z,1.20
2018-07-20T04:49:16.158Z,1.43
2018-07-20T04:51:44.748Z,0.90
2018-07-20T04:54:13.397Z,0.83
2018-07-20T04:56:42.615Z,1.10
2018-07-20T04:59:11.279Z,1.00
2018-07-20T05:01:40.066Z,1.07
2018-07-20T05:04:08.595Z,0.90
2018-07-20T05:06:37.232Z,0.93
2018-07-20T05:09:08.623Z,1.13
2018-07-20T05:11:37.292Z,1.20
2018-07-20T05:14:06.137Z,1.20
2018-07-20T05:16:34.843Z,0.73
2018-07-20T05:19:03.528Z,1.17
2018-07-20T05:21:32.146Z,0.90
2018-07-20T05:24:01.426Z,1.07
2018-07-20T05:26:30.451Z,1.27
2018-07-20T05:28:59.032Z,0.93
2018-07-20T05:31:27.668Z,1.33
2018-07-20T05:33:56.247Z,1.10
2018-07-20T05:36:24.835Z,1.20
2018-07-20T05:38:53.520Z,1.10
2018-07-20T05:41:22.123Z,1.10
2018-07-20T05:43:50.741Z,1.43
2018-07-20T05:46:19.986Z,1.00
2018-07-20T05:48:48.670Z,0.87
2018-07-20T05:51:17.356Z,1.00
2018-07-20T05:53:46.143Z,0.97
2018-07-20T05:56:14.678Z,1.23
2018-07-20T05:58:43.251Z,1.20
2018-07-20T06:01:11.946Z,1.10
2018-07-20T06:03:40.577Z,1.13
2018-07-20T06:06:09.083Z,1.13
2018-07-20T06:08:37.736Z,1.17
2018-07-20T06:11:06.498Z,1.10
2018-07-20T06:13:35.019Z,1.33
2018-07-20T06:16:03.695Z,0.80
2018-07-20T06:18:32.376Z,1.10
2018-07-20T06:21:01.989Z,1.23
2018-07-20T06:23:30.726Z,1.10
2018-07-20T06:25:59.363Z,1.33
2018-07-20T06:28:28.046Z,1.17
2018-07-20T06:30:57.086Z,1.00
2018-07-20T06:33:25.722Z,1.43
2018-07-20T06:35:54.407Z,0.90
2018-07-20T06:38:23.043Z,1.27
2018-07-20T06:40:51.676Z,0.93
2018-07-20T06:43:20.258Z,1.30
2018-07-20T06:45:49.938Z,1.00
2018-07-20T06:48:18.558Z,1.10
2018-07-20T06:50:50.897Z,1.03
2018-07-20T06:53:19.505Z,1.00
2018-07-20T06:55:48.013Z,0.63
2018-07-20T06:58:16.527Z,1.00
2018-07-20T07:00:45.253Z,1.00
2018-07-20T07:03:13.852Z,0.80
2018-07-20T07:05:42.380Z,1.03
2018-07-20T07:08:10.918Z,1.13
2018-07-20T07:10:39.562Z,0.90
2018-07-20T07:13:08.123Z,0.97
2018-07-20T07:15:36.655Z,1.02
2018-07-20T07:18:05.549Z,1.20
2018-07-20T07:20:34.224Z,1.23
2018-07-20T07:23:02.700Z,1.10
2018-07-20T07:25:31.285Z,0.80
2018-07-20T07:27:59.974Z,1.00
2018-07-20T07:30:28.473Z,1.13
2018-07-20T07:32:57.069Z,0.90
2018-07-20T07:35:25.724Z,0.90
2018-07-20T07:37:54.309Z,1.17
2018-07-20T07:40:23.361Z,0.93
2018-07-20T07:42:52.070Z,1.00
2018-07-20T07:45:20.670Z,0.80
2018-07-20T07:47:49.458Z,0.98
2018-07-20T07:50:18.137Z,1.07
2018-07-20T07:52:47.340Z,0.90
2018-07-20T07:55:15.924Z,1.20
2018-07-20T07:57:44.606Z,1.30
2018-07-20T08:00:13.396Z,1.10
2018-07-20T08:02:42.003Z,1.37
2018-07-20T08:05:10.886Z,0.80
2018-07-20T08:07:40.269Z,1.02
2018-07-20T08:10:09.450Z,1.42
2018-07-20T08:12:38.151Z,1.00
2018-07-20T08:15:07.300Z,0.85
2018-07-20T08:17:36.343Z,1.02
2018-07-20T08:20:05.379Z,0.97
2018-07-20T08:22:33.979Z,1.07
2018-07-20T08:25:03.387Z,1.45
2018-07-20T08:27:32.107Z,1.07
2018-07-20T08:30:00.690Z,1.00
2018-07-20T08:32:29.275Z,1.40
2018-07-20T08:34:57.957Z,1.05
2018-07-20T08:37:26.542Z,1.25
2018-07-20T08:39:55.166Z,1.00
2018-07-20T08:42:24.868Z,1.10
2018-07-20T08:44:53.418Z,1.10
2018-07-20T08:47:21.997Z,1.05
2018-07-20T08:49:50.582Z,1.10
2018-07-20T08:52:19.459Z,1.37
2018-07-20T08:54:48.156Z,1.10
2018-07-20T08:57:16.841Z,1.40
2018-07-20T08:59:45.526Z,1.12
2018-07-20T09:02:14.097Z,1.17
2018-07-20T09:04:42.693Z,1.00
2018-07-20T09:07:11.378Z,0.98
2018-07-20T09:09:40.065Z,1.32
2018-07-20T09:12:08.798Z,1.20
2018-07-20T09:14:37.698Z,1.57
2018-07-20T09:17:06.429Z,1.30
2018-07-20T09:19:35.318Z,0.88
2018-07-20T09:22:04.413Z,1.35
2018-07-20T09:24:33.614Z,1.30
2018-07-20T09:27:02.259Z,1.10
2018-07-20T09:29:30.878Z,1.20
2018-07-20T09:32:02.943Z,1.17
2018-07-20T09:34:31.628Z,1.30
2018-07-20T09:37:00.316Z,1.00
2018-07-20T09:39:28.894Z,1.37
2018-07-20T09:42:00.142Z,1.02
2018-07-20T09:44:29.092Z,1.32
2018-07-20T09:46:57.736Z,1.15
2018-07-20T09:49:26.401Z,1.25
2018-07-20T09:51:54.919Z,1.10
2018-07-20T09:54:23.570Z,0.90
2018-07-20T09:56:52.211Z,1.25
2018-07-20T09:59:21.712Z,1.50
2018-07-20T10:01:50.283Z,0.98
2018-07-20T10:04:19.020Z,1.30
2018-07-20T10:06:48.231Z,1.02
2018-07-20T10:09:16.753Z,1.20
2018-07-20T10:11:45.832Z,1.50
2018-07-20T10:14:15.195Z,1.12
2018-07-20T10:16:43.903Z,1.25
2018-07-20T10:19:13.525Z,1.20
2018-07-20T10:21:42.731Z,1.17
2018-07-20T10:24:11.374Z,1.40
2018-07-20T10:26:40.019Z,1.52
2018-07-20T10:29:08.575Z,1.27
2018-07-20T10:31:37.169Z,1.40
2018-07-20T10:34:05.796Z,1.40
2018-07-20T10:36:35.610Z,1.27
2018-07-20T10:39:06.371Z,1.27
2018-07-20T10:41:35.011Z,1.42
2018-07-20T10:44:03.978Z,1.20
2018-07-20T10:46:32.608Z,1.35
2018-07-20T10:49:01.404Z,1.00
2018-07-20T10:51:29.987Z,1.52
2018-07-20T10:53:58.791Z,1.50
2018-07-20T10:56:27.452Z,1.22
2018-07-20T10:58:56.194Z,1.20
2018-07-20T11:01:24.995Z,1.50
2018-07-20T11:03:53.616Z,1.15
2018-07-20T11:06:22.303Z,1.72
2018-07-20T11:08:50.882Z,1.32
2018-07-20T11:11:19.375Z,1.07
2018-07-20T11:13:48.023Z,1.47
2018-07-20T11:16:16.737Z,1.30
2018-07-20T11:18:45.419Z,1.55
2018-07-20T11:21:13.914Z,1.40
2018-07-20T11:23:42.694Z,1.40
2018-07-20T11:26:11.350Z,1.82
2018-07-20T11:28:40.008Z,1.60
2018-07-20T11:31:08.641Z,1.40
2018-07-20T11:33:37.167Z,1.15
2018-07-20T11:36:06.445Z,1.75
2018-07-20T11:38:35.042Z,1.70
2018-07-20T11:41:04.379Z,1.35
2018-07-20T11:43:32.989Z,1.40
2018-07-20T11:46:01.571Z,1.37
2018-07-20T11:48:30.202Z,1.47
2018-07-20T11:50:58.780Z,1.62
2018-07-20T11:53:27.422Z,1.10
2018-07-20T11:55:55.965Z,1.50
2018-07-20T11:58:24.550Z,1.40
2018-07-20T12:00:53.175Z,1.57
2018-07-20T12:03:21.856Z,1.30
2018-07-20T12:05:50.466Z,1.57
2018-07-20T12:08:19.227Z,1.32
2018-07-20T12:10:47.774Z,1.50
2018-07-20T12:13:16.418Z,1.42
2018-07-20T12:15:44.968Z,1.22
2018-07-20T12:18:13.763Z,1.57
2018-07-20T12:20:42.394Z,1.55
2018-07-20T12:23:11.017Z,1.27
2018-07-20T12:25:39.568Z,1.30
2018-07-20T12:28:08.127Z,1.40
2018-07-20T12:30:36.677Z,1.80
2018-07-20T12:33:05.366Z,1.20
2018-07-20T12:35:33.966Z,1.22
2018-07-20T12:38:02.942Z,1.75
2018-07-20T12:40:31.435Z,1.47
2018-07-20T12:42:59.923Z,1.80
2018-07-20T12:45:28.584Z,1.60
2018-07-20T12:47:57.183Z,1.72
2018-07-20T12:50:25.750Z,1.72
2018-07-20T12:52:54.420Z,1.50
2018-07-20T12:55:23.009Z,1.80
2018-07-20T12:57:51.704Z,1.60
2018-07-20T13:00:20.390Z,1.50
2018-07-20T13:02:48.894Z,1.67
2018-07-20T13:05:17.486Z,1.95
2018-07-20T13:07:46.449Z,1.67
2018-07-20T13:10:15.029Z,1.50
2018-07-20T13:12:43.650Z,1.62
2018-07-20T13:15:12.299Z,1.75
2018-07-20T13:17:40.942Z,1.57
2018-07-20T13:20:10.119Z,1.40
2018-07-20T13:22:38.761Z,1.98
2018-07-20T13:25:07.552Z,1.98
2018-07-20T13:27:36.049Z,1.75
2018-07-20T13:30:05.661Z,1.70
2018-07-20T13:32:34.324Z,1.90
2018-07-20T13:35:04.572Z,1.80
2018-07-20T13:37:33.994Z,2.33
2018-07-20T13:40:03.354Z,1.87
2018-07-20T13:42:32.025Z,2.37
2018-07-20T13:45:00.896Z,3.30
2018-07-20T13:47:30.753Z,2.75
2018-07-20T13:49:59.379Z,2.70
2018-07-20T13:52:28.085Z,2.80
2018-07-20T13:54:57.479Z,2.72
2018-07-20T13:57:26.846Z,2.70
2018-07-20T13:59:56.721Z,2.50
2018-07-20T14:02:27.045Z,2.72
2018-07-20T14:04:55.676Z,2.45
2018-07-20T14:07:24.614Z,2.10
2018-07-20T14:09:53.176Z,2.60
2018-07-20T14:12:22.397Z,2.67
2018-07-20T14:14:51.907Z,2.45
2018-07-20T14:17:21.329Z,2.17
2018-07-20T14:19:51.546Z,2.35
2018-07-20T14:22:20.793Z,2.33
2018-07-20T14:24:50.122Z,2.30
2018-07-20T14:27:18.711Z,2.70
2018-07-20T14:29:47.416Z,2.70
2018-07-20T14:32:16.067Z,2.52
2018-07-20T14:34:44.661Z,2.72
2018-07-20T14:37:13.332Z,3.10
2018-07-20T14:39:41.962Z,3.10
2018-07-20T14:42:10.517Z,3.08
2018-07-20T14:44:39.071Z,3.20
2018-07-20T14:47:09.933Z,3.58
2018-07-20T14:49:38.468Z,3.10
2018-07-20T14:52:07.122Z,3.95
2018-07-20T14:54:35.631Z,3.58
2018-07-20T14:57:04.268Z,3.80
2018-07-20T14:59:32.849Z,3.75
2018-07-20T15:02:01.637Z,3.33
2018-07-20T15:04:30.153Z,3.22
2018-07-20T15:06:58.935Z,3.33
2018-07-20T15:09:27.533Z,3.67
2018-07-20T15:11:56.096Z,3.52
2018-07-20T15:14:24.712Z,3.05
2018-07-20T15:16:53.295Z,2.70
2018-07-20T15:19:21.820Z,2.75
2018-07-20T15:21:50.505Z,2.77
2018-07-20T15:24:19.134Z,3.15
2018-07-20T15:26:47.682Z,2.70
2018-07-20T15:29:16.353Z,2.65
2018-07-20T15:31:44.875Z,2.95
2018-07-20T15:34:13.524Z,3.25
2018-07-20T15:36:42.151Z,2.83
2018-07-20T15:39:11.755Z,2.98
2018-07-20T15:41:40.646Z,3.90
2018-07-20T15:44:09.215Z,2.98
2018-07-20T15:46:37.853Z,2.65
2018-07-20T15:49:06.606Z,3.08
2018-07-20T15:53:35.053Z,2.50
2018-07-20T15:54:03.930Z,3.20
2018-07-20T15:56:32.613Z,2.52
2018-07-20T15:59:01.347Z,2.25
2018-07-20T16:01:29.923Z,2.62
2018-07-20T16:03:59.382Z,2.08
2018-07-20T16:06:28.069Z,1.95
2018-07-20T16:08:56.608Z,2.02
2018-07-20T16:11:25.182Z,1.87
2018-07-20T16:13:53.782Z,1.90
2018-07-20T16:16:22.402Z,1.80
2018-07-20T16:18:50.982Z,2.10
2018-07-20T16:21:19.569Z,1.87
2018-07-20T16:23:48.149Z,2.30
2018-07-20T16:26:16.735Z,1.95
2018-07-20T16:28:45.352Z,1.90
2018-07-20T16:31:13.809Z,1.75
2018-07-20T16:33:42.481Z,1.80
2018-07-20T16:36:11.061Z,1.60
2018-07-20T16:38:39.647Z,1.35
2018-07-20T16:41:09.404Z,1.90
2018-07-20T16:43:38.045Z,1.87
2018-07-20T16:46:06.706Z,1.60
2018-07-20T16:48:35.196Z,1.50
2018-07-20T16:51:03.726Z,1.80
2018-07-20T16:53:32.310Z,3.20
2018-07-20T16:56:00.895Z,1.92
2018-07-20T16:58:29.510Z,1.90
2018-07-20T17:00:58.095Z,1.65
2018-07-20T17:03:26.638Z,2.08
2018-07-20T17:05:55.287Z,2.25
2018-07-20T17:08:23.910Z,1.57
2018-07-20T17:10:53.018Z,1.20
2018-07-20T17:13:21.588Z,1.20
2018-07-20T17:15:50.132Z,1.45
2018-07-20T17:18:18.615Z,1.37
2018-07-20T17:20:47.235Z,0.98
2018-07-20T17:23:15.904Z,1.30
2018-07-20T17:25:44.586Z,1.35
2018-07-20T17:28:13.230Z,2.20
2018-07-20T17:30:41.732Z,1.12
2018-07-20T17:33:10.235Z,1.62
2018-07-20T17:35:38.795Z,1.50
2018-07-20T17:38:07.479Z,2.20
2018-07-20T17:40:36.152Z,1.67
2018-07-20T17:43:04.783Z,1.60
2018-07-20T17:45:33.433Z,1.45
2018-07-20T17:48:02.015Z,1.65
2018-07-20T17:50:30.639Z,1.87
2018-07-20T17:52:59.267Z,1.67
2018-07-20T17:55:27.784Z,1.47
2018-07-20T17:57:57.166Z,1.80
2018-07-20T18:00:25.747Z,1.90
2018-07-20T18:02:54.263Z,1.67
2018-07-20T18:05:23.531Z,1.55
2018-07-20T18:07:52.112Z,1.50
2018-07-20T18:10:20.806Z,1.67
2018-07-20T18:12:49.322Z,1.52
2018-07-20T18:15:18.619Z,2.00
2018-07-20T18:17:47.231Z,1.90
2018-07-20T18:20:15.777Z,1.45
2018-07-20T18:22:44.372Z,4.17
2018-07-20T18:25:13.786Z,1.40
2018-07-20T18:27:42.336Z,1.60
2018-07-20T18:30:10.999Z,1.35
2018-07-20T18:32:39.602Z,1.47
2018-07-20T18:35:08.265Z,4.47
2018-07-20T18:37:37.622Z,1.67
2018-07-20T18:40:06.379Z,1.50
2018-07-20T18:42:35.219Z,1.60
2018-07-20T18:45:03.874Z,1.77
2018-07-20T18:47:32.612Z,1.70
2018-07-20T18:50:01.200Z,1.50
2018-07-20T18:52:29.705Z,1.50
2018-07-20T18:54:58.239Z,1.70
2018-07-20T18:57:26.845Z,1.52
2018-07-20T18:59:55.369Z,1.60
2018-07-20T19:02:23.935Z,1.30
2018-07-20T19:04:52.590Z,1.47
2018-07-20T19:07:21.225Z,1.60
2018-07-20T19:09:49.919Z,1.32
2018-07-20T19:12:19.055Z,1.10
2018-07-20T19:14:47.740Z,1.10
2018-07-20T19:17:16.400Z,1.40
2018-07-20T19:19:45.111Z,1.67
2018-07-20T19:22:13.724Z,1.20
2018-07-20T19:24:42.272Z,1.20
2018-07-20T19:27:10.856Z,1.50
2018-07-20T19:29:39.367Z,1.50
2018-07-20T19:32:08.640Z,1.20
2018-07-20T19:34:37.263Z,1.47
2018-07-20T19:37:06.113Z,1.27
2018-07-20T19:39:34.635Z,1.27
2018-07-20T19:42:03.590Z,1.60
2018-07-20T19:44:32.191Z,1.50
2018-07-20T19:47:00.854Z,1.50
2018-07-20T19:49:29.367Z,1.33
2018-07-20T19:51:57.966Z,1.30
2018-07-20T19:54:26.538Z,0.93
2018-07-20T19:56:55.185Z,1.33
2018-07-20T19:59:23.796Z,1.60
2018-07-20T20:01:52.366Z,1.30
2018-07-20T20:04:21.049Z,1.07
2018-07-20T20:06:49.619Z,1.20
2018-07-20T20:09:18.203Z,1.43
2018-07-20T20:11:46.890Z,1.40
2018-07-20T20:14:15.436Z,1.13
2018-07-20T20:16:43.975Z,0.90
2018-07-20T20:19:12.740Z,1.20
2018-07-20T20:21:41.326Z,1.20
2018-07-20T20:24:09.903Z,1.27
2018-07-20T20:26:38.693Z,1.03
2018-07-20T20:29:07.525Z,1.30
2018-07-20T20:31:36.268Z,1.40
2018-07-20T20:34:04.823Z,0.87
2018-07-20T20:36:33.642Z,1.23
2018-07-20T20:39:02.324Z,1.20
2018-07-20T20:41:30.831Z,1.10
2018-07-20T20:43:59.549Z,1.37
2018-07-20T20:46:27.983Z,1.00
2018-07-20T20:48:56.594Z,1.23
2018-07-20T20:51:25.854Z,1.20
2018-07-20T20:53:54.743Z,1.40
2018-07-20T20:56:23.367Z,1.30
2018-07-20T20:58:51.954Z,1.57
2018-07-20T21:01:20.646Z,1.40
2018-07-20T21:03:49.894Z,1.37
2018-07-20T21:06:18.624Z,1.07
2018-07-20T21:08:47.263Z,1.40
2018-07-20T21:11:15.883Z,1.20
2018-07-20T21:13:44.595Z,1.30
2018-07-20T21:16:13.158Z,1.53
2018-07-20T21:18:41.860Z,1.30
2018-07-20T21:21:10.485Z,1.30
2018-07-20T21:23:39.069Z,1.27
2018-07-20T21:26:07.728Z,1.40
2018-07-20T21:28:36.263Z,1.50
2018-07-20T21:31:04.887Z,1.30
2018-07-20T21:33:33.459Z,1.10
2018-07-20T21:36:02.084Z,1.10
2018-07-20T21:38:30.770Z,1.00
2018-07-20T21:40:59.355Z,1.10
2018-07-20T21:43:27.937Z,1.17
2018-07-20T21:45:56.570Z,0.97
2018-07-20T21:48:25.154Z,1.30
2018-07-20T21:50:53.675Z,1.13
2018-07-20T21:53:22.268Z,1.30
2018-07-20T21:55:50.954Z,0.90
2018-07-20T21:58:19.456Z,1.60
2018-07-20T22:00:48.118Z,1.20
2018-07-20T22:03:16.701Z,0.93
2018-07-20T22:05:45.353Z,1.43
2018-07-20T22:08:13.915Z,1.30
2018-07-20T22:10:42.521Z,1.20
2018-07-20T22:13:11.238Z,0.90
2018-07-20T22:15:39.843Z,1.20
2018-07-20T22:18:08.445Z,1.40
2018-07-20T22:20:37.139Z,1.07
2018-07-20T22:23:05.694Z,1.10
2018-07-20T22:25:34.357Z,1.10
2018-07-20T22:28:02.941Z,1.43
2018-07-20T22:30:31.547Z,1.20
2018-07-20T22:33:00.203Z,1.10
2018-07-20T22:35:28.793Z,0.93
2018-07-20T22:37:57.412Z,1.10
2018-07-20T22:40:25.958Z,1.50
2018-07-20T22:42:54.520Z,1.30
2018-07-20T22:45:23.074Z,1.13
2018-07-20T22:47:51.602Z,1.43
2018-07-20T22:50:20.235Z,1.47
2018-07-20T22:52:48.770Z,1.40
2018-07-20T22:55:17.426Z,1.30
2018-07-20T22:57:46.125Z,1.50
2018-07-20T23:00:14.724Z,1.60
2018-07-20T23:02:43.359Z,1.53
2018-07-20T23:05:11.991Z,1.60
2018-07-20T23:07:40.595Z,1.30
2018-07-20T23:10:09.361Z,1.50
2018-07-20T23:12:37.983Z,1.47
2018-07-20T23:15:06.629Z,1.47
2018-07-20T23:17:35.213Z,1.50
2018-07-20T23:20:04.194Z,1.87
2018-07-20T23:22:32.996Z,1.60
2018-07-20T23:25:01.515Z,2.23
2018-07-20T23:27:30.075Z,1.83
2018-07-20T23:29:58.570Z,1.70
2018-07-20T23:32:27.079Z,1.77
2018-07-20T23:34:55.628Z,1.73
2018-07-20T23:37:24.361Z,1.90
2018-07-20T23:39:52.970Z,1.87
2018-07-20T23:42:21.466Z,2.00
2018-07-20T23:44:50.182Z,2.30
2018-07-20T23:47:18.824Z,2.20
2018-07-20T23:49:47.426Z,2.03
2018-07-20T23:52:17.014Z,2.10
2018-07-20T23:54:45.614Z,2.10
2018-07-20T23:57:14.279Z,1.80
2018-07-20T23:59:42.817Z,2.13
